createdAt,value
2019-05-02T00:00:12.956Z,93.40
2019-05-02T00:02:43.680Z,100.92
2019-05-02T00:05:14.082Z,98.20
2019-05-02T00:07:43.997Z,107.77
2019-05-02T00:10:20.039Z,99.13
2019-05-02T00:12:47.585Z,98.67
2019-05-02T00:15:18.421Z,106.43
2019-05-02T00:17:48.233Z,112.35
2019-05-02T00:20:21.309Z,104.35
2019-05-02T00:22:52.298Z,113.10
2019-05-02T00:25:20.334Z,111.85
2019-05-02T00:27:49.617Z,110.93
2019-05-02T00:30:19.073Z,110.50
2019-05-02T00:32:48.645Z,107.87
2019-05-02T00:35:18.255Z,112.87
2019-05-02T00:37:47.861Z,102.60
2019-05-02T00:40:20.245Z,113.08
2019-05-02T00:42:48.475Z,106.12
2019-05-02T00:45:18.645Z,110.23
2019-05-02T00:48:02.425Z,109.92
2019-05-02T00:50:35.873Z,103.17
2019-05-02T00:53:07.258Z,112.57
2019-05-02T00:55:36.313Z,106.10
2019-05-02T00:58:05.592Z,113.28
2019-05-02T01:00:39.921Z,116.67
2019-05-02T01:03:11.097Z,117.50
2019-05-02T01:05:40.588Z,116.28
2019-05-02T01:08:10.295Z,105.70
2019-05-02T01:10:39.589Z,104.72
2019-05-02T01:13:08.946Z,102.90
2019-05-02T01:15:39.180Z,111.47
2019-05-02T01:18:09.221Z,103.50
2019-05-02T01:20:38.581Z,102.85
2019-05-02T01:23:08.148Z,101.47
2019-05-02T01:25:37.761Z,107.10
2019-05-02T01:28:17.538Z,104.30
2019-05-02T01:31:03.825Z,107.12
2019-05-02T01:33:41.836Z,101.95
2019-05-02T01:36:13.688Z,109.70
2019-05-02T01:38:44.921Z,105.50
2019-05-02T01:41:14.211Z,98.97
2019-05-02T01:43:43.493Z,99.75
2019-05-02T01:46:17.119Z,104.83
2019-05-02T01:48:45.588Z,96.72
2019-05-02T01:51:15.238Z,99.13
2019-05-02T01:53:44.517Z,100.30
2019-05-02T01:56:14.275Z,92.37
2019-05-02T01:58:43.870Z,107.27
2019-05-02T02:01:16.346Z,105.55
2019-05-02T02:03:45.524Z,87.67
2019-05-02T02:06:15.453Z,101.18
2019-05-02T02:08:44.742Z,96.50
2019-05-02T02:11:14.021Z,108.22
2019-05-02T02:13:43.311Z,99.15
2019-05-02T02:16:12.590Z,100.90
2019-05-02T02:18:46.184Z,104.05
2019-05-02T02:21:20.025Z,99.77
2019-05-02T02:24:01.541Z,95.87
2019-05-02T02:26:30.816Z,101.12
2019-05-02T02:29:03.017Z,87.47
2019-05-02T02:31:31.368Z,95.07
2019-05-02T02:34:00.974Z,132.05
2019-05-02T02:36:33.863Z,101.72
2019-05-02T02:39:07.146Z,84.85
2019-05-02T02:41:34.077Z,89.45
2019-05-02T02:44:15.485Z,100.72
2019-05-02T02:46:46.541Z,95.95
2019-05-02T02:49:21.299Z,94.30
2019-05-02T02:51:47.191Z,95.85
2019-05-02T02:54:16.537Z,101.45
2019-05-02T02:56:45.816Z,109.55
2019-05-02T02:59:19.362Z,106.70
2019-05-02T03:01:46.128Z,119.80
2019-05-02T03:04:15.419Z,136.97
2019-05-02T03:06:47.120Z,118.72
2019-05-02T03:09:20.357Z,110.48
2019-05-02T03:11:49.162Z,113.70
2019-05-02T03:14:20.457Z,98.27
2019-05-02T03:16:49.812Z,116.37
2019-05-02T03:19:21.350Z,103.67
2019-05-02T03:21:54.617Z,102.53
2019-05-02T03:24:25.193Z,112.25
2019-05-02T03:26:56.112Z,117.42
2019-05-02T03:29:39.796Z,97.47
2019-05-02T03:32:11.567Z,95.97
2019-05-02T03:34:44.940Z,118.30
2019-05-02T03:37:03.187Z,97.85
2019-05-02T03:39:30.773Z,99.70
2019-05-02T03:42:02.717Z,99.77
2019-05-02T03:44:31.842Z,99.20
2019-05-02T03:47:04.674Z,109.17
2019-05-02T03:49:32.440Z,98.17
2019-05-02T03:52:05.752Z,96.50
2019-05-02T03:54:32.710Z,122.05
2019-05-02T03:57:02.326Z,118.93
2019-05-02T03:59:38.660Z,117.62
2019-05-02T04:02:02.969Z,118.02
2019-05-02T04:04:32.538Z,128.20
2019-05-02T04:07:03.473Z,140.43
2019-05-02T04:09:40.054Z,137.97
2019-05-02T04:12:17.736Z,145.87
2019-05-02T04:14:39.797Z,142.77
2019-05-02T04:17:10.846Z,149.70
2019-05-02T04:19:41.026Z,144.65
2019-05-02T04:22:11.970Z,150.05
2019-05-02T04:24:47.953Z,134.40
2019-05-02T04:27:13.422Z,144.60
2019-05-02T04:29:42.877Z,135.05
2019-05-02T04:32:14.486Z,132.03
2019-05-02T04:34:48.957Z,120.20
2019-05-02T04:37:14.549Z,131.70
2019-05-02T04:39:43.889Z,139.95
2019-05-02T04:42:19.470Z,131.82
2019-05-02T04:44:59.969Z,134.67
2019-05-02T04:47:20.848Z,139.90
2019-05-02T04:49:49.119Z,135.43
2019-05-02T04:52:20.924Z,132.05
2019-05-02T04:54:48.880Z,117.60
2019-05-02T04:57:19.710Z,131.85
2019-05-02T04:59:50.512Z,125.27
2019-05-02T05:02:29.841Z,137.32
2019-05-02T05:04:51.290Z,113.47
2019-05-02T05:07:20.581Z,115.50
2019-05-02T05:09:57.066Z,105.15
2019-05-02T05:12:20.869Z,108.87
2019-05-02T05:14:50.442Z,128.83
2019-05-02T05:17:20.173Z,124.20
2019-05-02T05:19:49.523Z,120.42
2019-05-02T05:22:19.058Z,122.30
2019-05-02T05:24:58.104Z,116.40
2019-05-02T05:27:27.528Z,133.07
2019-05-02T05:30:02.271Z,140.25
2019-05-02T05:32:29.186Z,130.25
2019-05-02T05:35:03.193Z,133.12
2019-05-02T05:37:29.723Z,135.63
2019-05-02T05:39:59.243Z,124.35
2019-05-02T05:42:32.661Z,135.18
2019-05-02T05:45:03.667Z,124.90
2019-05-02T05:47:30.675Z,127.80
2019-05-02T05:50:01.252Z,130.43
2019-05-02T05:52:33.242Z,135.87
2019-05-02T05:55:04.910Z,136.93
2019-05-02T05:57:33.925Z,140.57
2019-05-02T06:00:11.848Z,134.60
2019-05-02T06:02:50.826Z,130.87
2019-05-02T06:05:08.877Z,142.72
2019-05-02T06:07:41.796Z,136.77
2019-05-02T06:10:10.084Z,127.85
2019-05-02T06:12:39.368Z,135.83
2019-05-02T06:15:08.881Z,142.03
2019-05-02T06:17:38.173Z,133.90
2019-05-02T06:20:07.593Z,150.97
2019-05-02T06:22:36.884Z,150.65
2019-05-02T06:25:10.328Z,140.67
2019-05-02T06:27:39.753Z,145.47
2019-05-02T06:30:09.769Z,143.03
2019-05-02T06:32:39.133Z,152.10
2019-05-02T06:35:08.916Z,138.43
2019-05-02T06:37:40.739Z,147.63
2019-05-02T06:40:10.568Z,128.30
2019-05-02T06:42:40.113Z,135.57
2019-05-02T06:45:10.133Z,140.20
2019-05-02T06:47:41.810Z,135.23
2019-05-02T06:50:10.678Z,126.97
2019-05-02T06:52:40.278Z,132.77
2019-05-02T06:55:10.201Z,124.80
2019-05-02T06:57:39.491Z,126.40
2019-05-02T07:00:10.578Z,127.60
2019-05-02T07:02:39.868Z,120.57
2019-05-02T07:05:09.604Z,122.53
2019-05-02T07:07:39.172Z,121.90
2019-05-02T07:10:09.077Z,119.33
2019-05-02T07:12:38.366Z,121.07
2019-05-02T07:15:09.943Z,119.43
2019-05-02T07:17:43.563Z,121.23
2019-05-02T07:20:13.385Z,112.07
2019-05-02T07:22:45.577Z,118.43
2019-05-02T07:25:16.814Z,114.53
2019-05-02T07:27:46.288Z,93.93
2019-05-02T07:30:17.205Z,97.07
2019-05-02T07:32:46.500Z,95.77
2019-05-02T07:35:19.131Z,90.27
2019-05-02T07:37:48.795Z,78.27
2019-05-02T07:40:18.947Z,70.50
2019-05-02T07:42:48.323Z,77.90
2019-05-02T07:45:17.949Z,82.80
2019-05-02T07:47:47.225Z,76.33
2019-05-02T07:50:16.756Z,60.60
2019-05-02T07:52:46.037Z,51.80
2019-05-02T07:55:15.465Z,48.40
2019-05-02T07:57:45.054Z,50.90
2019-05-02T08:00:15.610Z,56.87
2019-05-02T08:02:44.988Z,59.30
2019-05-02T08:05:15.748Z,66.40
2019-05-02T08:07:46.233Z,59.30
2019-05-02T08:10:22.193Z,70.77
2019-05-02T08:12:47.909Z,80.30
2019-05-02T08:15:17.441Z,83.80
2019-05-02T08:17:53.229Z,74.07
2019-05-02T08:20:19.353Z,71.97
2019-05-02T08:22:50.354Z,76.90
2019-05-02T08:25:20.354Z,65.63
2019-05-02T08:27:51.275Z,84.57
2019-05-02T08:30:22.971Z,80.10
2019-05-02T08:32:52.245Z,75.63
2019-05-02T08:35:22.604Z,73.30
2019-05-02T08:37:51.881Z,65.63
2019-05-02T08:40:21.482Z,69.43
2019-05-02T08:42:51.090Z,63.60
2019-05-02T08:45:20.377Z,69.47
2019-05-02T08:47:49.657Z,61.73
2019-05-02T08:50:19.187Z,66.13
2019-05-02T08:52:48.713Z,58.20
2019-05-02T08:55:18.010Z,53.57
2019-05-02T08:57:47.288Z,57.70
2019-05-02T09:00:17.169Z,55.77
2019-05-02T09:02:46.730Z,58.67
2019-05-02T09:05:16.485Z,55.27
2019-05-02T09:07:45.761Z,58.00
2019-05-02T09:10:15.488Z,57.47
2019-05-02T09:12:45.561Z,57.80
2019-05-02T09:15:15.369Z,55.67
2019-05-02T09:17:52.808Z,64.23
2019-05-02T09:20:21.034Z,53.17
2019-05-02T09:22:54.028Z,63.00
2019-05-02T09:25:19.553Z,62.03
2019-05-02T09:27:48.838Z,59.33
2019-05-02T09:30:24.210Z,71.73
2019-05-02T09:32:51.995Z,67.10
2019-05-02T09:35:22.910Z,62.97
2019-05-02T09:37:52.256Z,56.17
2019-05-02T09:40:22.246Z,62.00
2019-05-02T09:42:53.464Z,59.30
2019-05-02T09:45:27.804Z,63.30
2019-05-02T09:48:04.025Z,64.87
2019-05-02T09:50:31.378Z,67.50
2019-05-02T09:52:58.362Z,69.53
2019-05-02T09:55:27.990Z,70.30
2019-05-02T09:57:57.276Z,75.47
2019-05-02T10:00:39.134Z,75.37
2019-05-02T10:03:08.669Z,70.50
2019-05-02T10:05:37.957Z,66.97
2019-05-02T10:08:10.757Z,77.93
2019-05-02T10:10:42.563Z,86.93
2019-05-02T10:13:09.389Z,89.17
2019-05-02T10:15:38.736Z,89.23
2019-05-02T10:18:11.369Z,76.73
2019-05-02T10:20:41.741Z,78.97
2019-05-02T10:23:11.966Z,80.90
2019-05-02T10:25:46.818Z,93.23
2019-05-02T10:28:14.884Z,88.87
2019-05-02T10:30:47.412Z,93.13
2019-05-02T10:33:15.657Z,90.50
2019-05-02T10:35:46.584Z,91.20
2019-05-02T10:38:19.423Z,94.73
2019-05-02T10:40:48.337Z,111.30
2019-05-02T10:43:18.258Z,99.83
2019-05-02T10:45:52.788Z,91.10
2019-05-02T10:48:27.488Z,83.10
2019-05-02T10:50:53.633Z,49.70
2019-05-02T10:53:22.992Z,84.83
2019-05-02T10:55:52.560Z,87.10
2019-05-02T10:58:25.820Z,86.03
2019-05-02T11:00:53.092Z,86.80
2019-05-02T11:03:31.821Z,80.03
2019-05-02T11:06:07.406Z,74.53
2019-05-02T11:08:36.670Z,79.20
2019-05-02T11:11:06.287Z,68.77
2019-05-02T11:13:37.623Z,77.03
2019-05-02T11:16:21.738Z,72.97
2019-05-02T11:18:58.589Z,81.97
2019-05-02T11:21:27.937Z,82.30
2019-05-02T11:23:57.346Z,73.17
2019-05-02T11:26:27.751Z,70.97
2019-05-02T11:28:57.285Z,77.27
2019-05-02T11:31:26.709Z,75.33
2019-05-02T11:33:56.004Z,74.63
2019-05-02T11:36:27.468Z,63.67
2019-05-02T11:39:05.289Z,67.47
2019-05-02T11:41:27.540Z,65.80
2019-05-02T11:43:56.831Z,64.77
2019-05-02T11:46:26.109Z,64.07
2019-05-02T11:48:58.555Z,72.77
2019-05-02T11:51:26.840Z,77.77
2019-05-02T11:53:59.327Z,66.50
2019-05-02T11:56:27.102Z,64.30
2019-05-02T11:58:56.694Z,56.50
2019-05-02T12:01:37.092Z,65.53
2019-05-02T12:03:57.478Z,61.77
2019-05-02T12:06:26.757Z,56.00
2019-05-02T12:08:56.041Z,59.90
2019-05-02T12:11:25.394Z,59.97
2019-05-02T12:13:56.979Z,62.17
2019-05-02T12:16:26.286Z,58.83
2019-05-02T12:19:08.506Z,58.40
2019-05-02T12:21:26.625Z,54.90
2019-05-02T12:23:55.914Z,55.67
2019-05-02T12:26:25.542Z,60.63
2019-05-02T12:28:54.828Z,55.53
2019-05-02T12:31:26.590Z,57.30
2019-05-02T12:33:56.677Z,56.83
2019-05-02T12:36:26.334Z,45.70
2019-05-02T12:38:55.646Z,45.77
2019-05-02T12:41:25.364Z,49.10
2019-05-02T12:43:55.050Z,45.67
2019-05-02T12:46:24.336Z,48.77
2019-05-02T12:48:53.853Z,47.83
2019-05-02T12:51:23.136Z,46.87
2019-05-02T12:53:52.934Z,51.57
2019-05-02T12:56:23.043Z,45.80
2019-05-02T12:58:53.089Z,48.17
2019-05-02T13:01:23.578Z,48.13
2019-05-02T13:04:00.212Z,44.47
2019-05-02T13:06:29.493Z,46.87
2019-05-02T13:08:59.025Z,45.97
2019-05-02T13:11:32.124Z,45.33
2019-05-02T13:14:02.245Z,48.07
2019-05-02T13:16:33.514Z,43.93
2019-05-02T13:19:06.046Z,43.73
2019-05-02T13:21:43.039Z,40.17
2019-05-02T13:24:16.422Z,41.30
2019-05-02T13:26:45.417Z,40.70
2019-05-02T13:29:14.693Z,41.27
2019-05-02T13:31:45.621Z,38.27
2019-05-02T13:34:22.705Z,47.30
2019-05-02T13:36:53.366Z,41.73
2019-05-02T13:39:42.337Z,41.27
2019-05-02T13:42:12.669Z,46.33
2019-05-02T13:44:43.641Z,43.97
2019-05-02T13:47:14.837Z,40.50
2019-05-02T13:49:53.595Z,39.83
2019-05-02T13:52:15.113Z,35.83
2019-05-02T13:54:44.388Z,39.90
2019-05-02T13:57:14.004Z,35.03
2019-05-02T13:59:43.281Z,45.97
2019-05-02T14:02:35.059Z,38.97
2019-05-02T14:05:07.412Z,41.93
2019-05-02T14:07:36.955Z,41.07
2019-05-02T14:10:08.710Z,40.93
2019-05-02T14:12:52.813Z,36.50
2019-05-02T14:15:23.888Z,33.93
2019-05-02T14:17:53.189Z,37.37
2019-05-02T14:20:22.667Z,33.77
2019-05-02T14:22:52.678Z,34.87
2019-05-02T14:25:22.581Z,36.47
2019-05-02T14:27:55.485Z,37.40
2019-05-02T14:30:35.957Z,37.53
2019-05-02T14:32:57.981Z,37.60
2019-05-02T14:35:28.973Z,41.03
2019-05-02T14:38:13.154Z,34.40
2019-05-02T14:41:03.285Z,37.90
2019-05-02T14:43:53.189Z,34.13
2019-05-02T14:46:23.841Z,36.37
2019-05-02T14:48:53.310Z,33.47
2019-05-02T14:51:27.745Z,35.10
2019-05-02T14:53:57.217Z,35.90
2019-05-02T14:56:47.789Z,34.33
2019-05-02T14:59:19.621Z,36.77
2019-05-02T15:01:50.184Z,30.37
2019-05-02T15:04:19.798Z,36.23
2019-05-02T15:06:49.096Z,36.30
2019-05-02T15:12:18.859Z,38.43
2019-05-02T15:14:49.803Z,40.53
2019-05-02T15:17:18.929Z,42.30
2019-05-02T15:19:48.332Z,38.53
2019-05-02T15:22:18.089Z,43.17
2019-05-02T15:24:48.137Z,42.87
2019-05-02T15:27:17.978Z,45.57
2019-05-02T15:29:47.625Z,45.30
2019-05-02T15:32:22.232Z,48.57
2019-05-02T15:35:05.503Z,43.70
2019-05-02T15:37:35.995Z,54.60
2019-05-02T15:42:42.232Z,52.87
2019-05-02T15:45:12.496Z,44.03
2019-05-02T15:47:45.168Z,50.03
2019-05-02T15:50:14.801Z,53.40
2019-05-02T15:52:46.264Z,50.70
2019-05-02T15:55:15.760Z,47.30
2019-05-02T15:57:46.445Z,52.90
2019-05-02T16:00:25.700Z,53.40
2019-05-02T16:02:56.391Z,54.03
2019-05-02T16:05:25.150Z,57.63
2019-05-02T16:08:05.309Z,50.80
2019-05-02T16:10:25.522Z,53.53
2019-05-02T16:12:55.322Z,61.90
2019-05-02T16:15:26.528Z,54.47
2019-05-02T16:17:56.891Z,57.20
2019-05-02T16:20:32.347Z,54.30
2019-05-02T16:23:02.003Z,58.00
2019-05-02T16:25:32.029Z,58.93
2019-05-02T16:28:05.970Z,63.20
2019-05-02T16:30:36.918Z,65.17
2019-05-02T16:33:07.975Z,76.87
2019-05-02T16:35:36.277Z,76.00
2019-05-02T16:38:05.817Z,83.40
2019-05-02T16:40:35.119Z,58.03
2019-05-02T16:43:04.724Z,58.70
2019-05-02T16:45:34.013Z,51.50
2019-05-02T16:48:03.639Z,53.07
2019-05-02T16:50:36.738Z,55.80
2019-05-02T16:53:03.971Z,51.83
2019-05-02T16:55:33.592Z,61.07
2019-05-02T16:58:07.162Z,63.47
2019-05-02T17:00:37.128Z,69.00
2019-05-02T17:03:05.152Z,61.73
2019-05-02T17:05:34.676Z,63.70
2019-05-02T17:08:10.604Z,72.03
2019-05-02T17:10:47.495Z,72.37
2019-05-02T17:13:16.454Z,67.93
2019-05-02T17:15:45.808Z,72.83
2019-05-02T17:18:18.232Z,57.60
2019-05-02T17:20:52.032Z,54.90
2019-05-02T17:23:17.649Z,44.90
2019-05-02T17:25:47.001Z,44.87
2019-05-02T17:28:16.654Z,51.63
2019-05-02T17:30:45.985Z,49.83
2019-05-02T17:33:16.394Z,50.10
2019-05-02T17:35:49.935Z,52.87
2019-05-02T17:38:19.082Z,48.87
2019-05-02T17:40:48.447Z,53.53
2019-05-02T17:43:17.732Z,54.07
2019-05-02T17:45:47.950Z,58.10
2019-05-02T17:48:17.830Z,57.60
2019-05-02T17:50:59.287Z,55.20
2019-05-02T17:53:27.015Z,55.70
2019-05-02T17:55:56.378Z,56.37
2019-05-02T17:58:25.685Z,62.50
2019-05-02T18:00:57.242Z,62.53
2019-05-02T18:03:30.941Z,54.20
2019-05-02T18:05:58.489Z,49.97
2019-05-02T18:08:27.826Z,54.70
2019-05-02T18:11:00.059Z,63.17
2019-05-02T18:13:29.099Z,63.77
2019-05-02T18:15:59.395Z,56.13
2019-05-02T18:18:28.955Z,51.50
2019-05-02T18:20:58.229Z,52.17
2019-05-02T18:23:27.761Z,49.33
2019-05-02T18:26:02.007Z,54.50
2019-05-02T18:28:28.457Z,56.07
2019-05-02T18:31:04.523Z,60.90
2019-05-02T18:33:29.068Z,54.43
2019-05-02T18:36:01.803Z,62.07
2019-05-02T18:38:32.450Z,56.13
2019-05-02T18:41:06.008Z,57.93
2019-05-02T18:43:36.065Z,59.53
2019-05-02T18:46:07.516Z,59.37
2019-05-02T18:48:36.609Z,55.77
2019-05-02T18:51:06.970Z,58.80
2019-05-02T18:53:36.574Z,55.50
2019-05-02T18:56:06.200Z,49.80
2019-05-02T18:58:36.239Z,59.00
2019-05-02T19:01:08.413Z,53.03
2019-05-02T19:03:37.825Z,55.20
2019-05-02T19:06:07.117Z,59.47
2019-05-02T19:08:46.740Z,55.63
2019-05-02T19:11:12.338Z,56.30
2019-05-02T19:13:42.771Z,63.43
2019-05-02T19:16:13.502Z,65.87
2019-05-02T19:18:42.857Z,71.60
2019-05-02T19:21:12.666Z,67.17
2019-05-02T19:23:42.591Z,68.10
2019-05-02T19:26:15.035Z,78.97
2019-05-02T19:28:44.634Z,73.13
2019-05-02T19:31:13.919Z,77.90
2019-05-02T19:33:44.170Z,77.73
2019-05-02T19:36:16.329Z,80.80
2019-05-02T19:38:44.582Z,83.20
2019-05-02T19:41:13.876Z,97.00
2019-05-02T19:43:49.266Z,97.17
2019-05-02T19:46:16.831Z,97.67
2019-05-02T19:48:45.777Z,89.00
2019-05-02T19:51:18.697Z,102.27
2019-05-02T19:53:46.428Z,88.03
2019-05-02T19:56:16.509Z,97.43
2019-05-02T19:59:07.798Z,99.80
2019-05-02T20:01:37.267Z,104.43
2019-05-02T20:04:09.394Z,101.80
2019-05-02T20:06:37.909Z,93.90
2019-05-02T20:09:08.487Z,96.10
2019-05-02T20:11:39.429Z,87.73
2019-05-02T20:14:09.610Z,88.07
2019-05-02T20:16:45.855Z,88.97
2019-05-02T20:19:17.284Z,84.30
2019-05-02T20:21:52.064Z,81.57
2019-05-02T20:24:24.094Z,81.17
2019-05-02T20:26:56.122Z,84.97
2019-05-02T20:29:24.518Z,79.77
2019-05-02T20:31:53.806Z,78.60
2019-05-02T20:34:23.096Z,84.03
2019-05-02T20:36:52.382Z,81.73
2019-05-02T20:39:22.480Z,78.27
2019-05-02T20:41:53.068Z,74.63
2019-05-02T20:44:22.481Z,80.53
2019-05-02T20:46:51.781Z,74.17
2019-05-02T20:49:21.329Z,77.53
2019-05-02T20:51:51.819Z,83.00
2019-05-02T20:54:21.194Z,81.27
2019-05-02T20:56:51.962Z,80.17
2019-05-02T20:59:22.717Z,73.20
2019-05-02T21:01:53.178Z,77.40
2019-05-02T21:04:22.991Z,79.47
2019-05-02T21:07:10.753Z,78.97
2019-05-02T21:09:54.119Z,72.10
2019-05-02T21:12:23.409Z,70.93
2019-05-02T21:14:52.933Z,69.50
2019-05-02T21:17:22.225Z,69.50
2019-05-02T21:19:51.841Z,67.70
2019-05-02T21:22:24.213Z,61.93
2019-05-02T21:24:53.822Z,61.57
2019-05-02T21:27:23.114Z,68.50
2019-05-02T21:29:52.637Z,59.60
2019-05-02T21:32:22.890Z,58.00
2019-05-02T21:34:52.589Z,56.07
2019-05-02T21:37:22.723Z,54.50
2019-05-02T21:39:52.300Z,54.17
2019-05-02T21:42:22.613Z,59.90
2019-05-02T21:44:52.429Z,56.90
2019-05-02T21:47:22.498Z,54.07
2019-05-02T21:49:56.276Z,54.17
2019-05-02T21:52:31.810Z,51.70
2019-05-02T21:55:18.310Z,49.70
2019-05-02T21:57:47.783Z,46.43
2019-05-02T22:00:24.633Z,36.10
2019-05-02T22:02:55.533Z,37.73
2019-05-02T22:05:24.817Z,36.07
2019-05-02T22:07:54.118Z,34.47
2019-05-02T22:10:23.393Z,32.30
2019-05-02T22:12:52.693Z,26.93
2019-05-02T22:15:22.233Z,29.07
2019-05-02T22:17:52.267Z,33.10
2019-05-02T22:20:22.965Z,27.93
2019-05-02T22:22:53.410Z,28.33
2019-05-02T22:25:22.706Z,27.33
2019-05-02T22:27:54.057Z,30.23
2019-05-02T22:30:23.730Z,28.90
2019-05-02T22:32:54.319Z,25.10
2019-05-02T22:35:23.785Z,24.27
2019-05-02T22:37:57.384Z,29.07
2019-05-02T22:40:26.674Z,29.73
2019-05-02T22:42:55.956Z,28.43
2019-05-02T22:45:25.245Z,33.67
2019-05-02T22:47:54.517Z,32.67
2019-05-02T22:50:23.807Z,40.93
2019-05-02T22:52:53.318Z,40.90
2019-05-02T22:55:23.685Z,40.17
2019-05-02T22:57:53.253Z,41.67
2019-05-02T23:00:23.616Z,37.03
2019-05-02T23:02:52.929Z,44.90
2019-05-02T23:05:22.485Z,38.20
2019-05-02T23:07:52.675Z,38.63
2019-05-02T23:10:22.197Z,38.63
2019-05-02T23:12:51.788Z,34.57
2019-05-02T23:15:21.694Z,35.13
2019-05-02T23:17:52.274Z,31.07
2019-05-02T23:20:21.777Z,34.00
2019-05-02T23:22:52.598Z,34.20
2019-05-02T23:25:40.012Z,35.23
2019-05-02T23:28:10.934Z,32.97
2019-05-02T23:30:42.354Z,33.43
2019-05-02T23:33:12.978Z,32.07
2019-05-02T23:35:42.995Z,34.70
2019-05-02T23:38:12.629Z,31.80
2019-05-02T23:40:42.269Z,33.53
2019-05-02T23:43:12.515Z,32.30
2019-05-02T23:45:42.318Z,28.87
2019-05-02T23:48:12.621Z,33.53
2019-05-02T23:50:42.009Z,33.30
2019-05-02T23:53:12.796Z,38.53
2019-05-02T23:55:42.636Z,37.30
2019-05-02T23:58:12.019Z,33.50
